Time;durP1;ratioP1;P1;durP2;ratioP2;P2;SDS_P1;SDS_P2;PMS_P1;PMS_P2;Temp;Humidity;BMP_temperature;BMP_pressure;BME280_temperature;BME280_humidity;BME280_pressure;Samples;Min_cycle;Max_cycle;Signal;HPM_P1;HPM_P2
2021/09/05 00:00:29;;;;;;;7.22;4.57;;;;;;;;;;5076163;28;20036;-75
2021/09/05 00:02:55;;;;;;;4.75;3.83;;;;;;;;;;5076165;28;20045;-75
2021/09/05 00:05:21;;;;;;;7.15;3.58;;;;;;;;;;5076205;28;20039;-75
2021/09/05 00:07:47;;;;;;;4.82;4.43;;;;;;;;;;5076508;28;20055;-75
2021/09/05 00:10:14;;;;;;;5.43;4.00;;;;;;;;;;5076440;28;20127;-74
2021/09/05 00:12:42;;;;;;;6.13;3.78;;;;;;;;;;5076088;28;20062;-74
2021/09/05 00:15:09;;;;;;;4.32;3.90;;;;;;;;;;5075884;28;20071;-74
2021/09/05 00:17:35;;;;;;;6.82;4.03;;;;;;;;;;5076010;28;20051;-75
2021/09/05 00:20:01;;;;;;;11.45;3.97;;;;;;;;;;5075928;28;20360;-75
2021/09/05 00:22:28;;;;;;;5.72;4.15;;;;;;;;;;5076163;28;20043;-74
2021/09/05 00:24:54;;;;;;;5.95;3.97;;;;;;;;;;5076026;28;20044;-74
2021/09/05 00:27:20;;;;;;;5.55;3.53;;;;;;;;;;5075944;28;20395;-74
2021/09/05 00:29:46;;;;;;;9.48;3.97;;;;;;;;;;5075551;28;20043;-74
2021/09/05 00:32:12;;;;;;;12.43;4.60;;;;;;;;;;5076003;28;20036;-74
2021/09/05 00:34:38;;;;;;;5.32;4.20;;;;;;;;;;5076188;28;20097;-74
2021/09/05 00:37:04;;;;;;;5.88;3.67;;;;;;;;;;5076081;28;20056;-74
2021/09/05 00:39:31;;;;;;;5.38;4.05;;;;;;;;;;5076069;28;20036;-74
2021/09/05 00:41:57;;;;;;;7.22;4.22;;;;;;;;;;5075646;28;20059;-75
2021/09/05 00:44:23;;;;;;;4.30;3.85;;;;;;;;;;5074767;28;20052;-75
2021/09/05 00:46:49;;;;;;;8.23;4.07;;;;;;;;;;5074851;28;20052;-75
2021/09/05 00:49:15;;;;;;;6.10;4.18;;;;;;;;;;5075360;28;20043;-75
2021/09/05 00:51:42;;;;;;;6.03;3.97;;;;;;;;;;5074982;28;20438;-75
2021/09/05 00:54:10;;;;;;;10.82;4.20;;;;;;;;;;5075120;28;20128;-75
2021/09/05 00:56:38;;;;;;;6.93;4.20;;;;;;;;;;5074850;28;20579;-74
2021/09/05 00:59:10;;;;;;;4.88;4.07;;;;;;;;;;5075109;28;20048;-74
2021/09/05 01:01:36;;;;;;;4.10;3.67;;;;;;;;;;5074294;28;20115;-74
2021/09/05 01:04:03;;;;;;;8.85;3.83;;;;;;;;;;5075249;28;20044;-74
2021/09/05 01:06:29;;;;;;;5.63;3.88;;;;;;;;;;5074668;28;20045;-74
2021/09/05 01:08:57;;;;;;;4.82;3.80;;;;;;;;;;5075284;28;20068;-74
2021/09/05 01:11:24;;;;;;;6.30;3.80;;;;;;;;;;5074953;28;20040;-74
2021/09/05 01:13:50;;;;;;;4.72;4.13;;;;;;;;;;5074917;28;20051;-74
2021/09/05 01:16:23;;;;;;;4.40;4.00;;;;;;;;;;5073406;28;20033;-74
2021/09/05 01:18:50;;;;;;;4.95;3.50;;;;;;;;;;5074960;28;20070;-74
2021/09/05 01:21:16;;;;;;;4.32;3.65;;;;;;;;;;5074815;28;20041;-74
2021/09/05 01:23:42;;;;;;;5.10;3.55;;;;;;;;;;5074976;28;20051;-74
2021/09/05 01:26:11;;;;;;;6.85;3.53;;;;;;;;;;5074751;28;20037;-74
2021/09/05 01:28:37;;;;;;;8.57;3.92;;;;;;;;;;5075153;28;20032;-74
2021/09/05 01:31:04;;;;;;;9.07;4.10;;;;;;;;;;5074712;28;20036;-74
2021/09/05 01:33:30;;;;;;;5.82;4.60;;;;;;;;;;5074957;28;20040;-74
2021/09/05 01:35:56;;;;;;;7.22;3.88;;;;;;;;;;5074591;28;20098;-74
2021/09/05 01:38:22;;;;;;;8.27;3.97;;;;;;;;;;5075162;28;20032;-74
2021/09/05 01:40:48;;;;;;;7.55;3.85;;;;;;;;;;5074539;28;20510;-74
2021/09/05 01:43:15;;;;;;;6.32;3.90;;;;;;;;;;5073907;28;20154;-75
2021/09/05 01:45:41;;;;;;;6.85;3.80;;;;;;;;;;5074352;28;20037;-74
2021/09/05 01:48:07;;;;;;;9.50;3.70;;;;;;;;;;5074582;28;20052;-74
2021/09/05 01:50:33;;;;;;;6.82;3.67;;;;;;;;;;5074191;28;20032;-74
2021/09/05 01:52:59;;;;;;;6.05;3.60;;;;;;;;;;5074718;28;20048;-74
2021/09/05 01:55:26;;;;;;;3.97;3.55;;;;;;;;;;5073872;28;20064;-74
2021/09/05 01:57:52;;;;;;;4.20;3.60;;;;;;;;;;5074794;28;20044;-74
2021/09/05 02:00:18;;;;;;;4.55;3.83;;;;;;;;;;5074220;28;20063;-74
2021/09/05 02:02:44;;;;;;;3.72;3.42;;;;;;;;;;5074380;28;20499;-74
2021/09/05 02:05:10;;;;;;;9.20;4.07;;;;;;;;;;5074537;28;20056;-74
2021/09/05 02:07:36;;;;;;;6.03;3.97;;;;;;;;;;5072779;28;20044;-74
2021/09/05 02:10:02;;;;;;;7.28;3.45;;;;;;;;;;5074545;28;20040;-74
2021/09/05 02:12:29;;;;;;;5.00;3.80;;;;;;;;;;5074000;28;20133;-74
2021/09/05 02:14:55;;;;;;;4.13;3.53;;;;;;;;;;5074042;28;20044;-74
2021/09/05 02:17:21;;;;;;;4.88;3.20;;;;;;;;;;5073840;28;20044;-74
2021/09/05 02:19:47;;;;;;;7.85;3.92;;;;;;;;;;5074212;28;20032;-74
2021/09/05 02:22:13;;;;;;;6.28;3.70;;;;;;;;;;5073872;28;20040;-74
2021/09/05 02:24:39;;;;;;;5.28;3.92;;;;;;;;;;5074828;28;20071;-74
2021/09/05 02:27:05;;;;;;;5.20;3.70;;;;;;;;;;5073840;28;20124;-74
2021/09/05 02:29:31;;;;;;;4.30;3.60;;;;;;;;;;5074093;28;20045;-74
2021/09/05 02:31:58;;;;;;;5.10;3.83;;;;;;;;;;5074126;28;20033;-74
2021/09/05 02:34:24;;;;;;;15.88;4.80;;;;;;;;;;5073948;28;20044;-74
2021/09/05 02:36:50;;;;;;;8.63;3.70;;;;;;;;;;5074228;28;20047;-74
2021/09/05 02:39:16;;;;;;;5.32;3.63;;;;;;;;;;5073740;28;20076;-74
2021/09/05 02:41:43;;;;;;;4.97;4.00;;;;;;;;;;5073977;28;20039;-74
2021/09/05 02:44:09;;;;;;;7.03;3.65;;;;;;;;;;5074294;28;20076;-74
2021/09/05 02:46:35;;;;;;;4.35;3.90;;;;;;;;;;5073798;28;20079;-74
2021/09/05 02:49:02;;;;;;;7.28;3.60;;;;;;;;;;5074204;28;20047;-74
2021/09/05 02:51:29;;;;;;;8.63;3.92;;;;;;;;;;5074176;28;20045;-74
2021/09/05 02:53:55;;;;;;;4.85;3.88;;;;;;;;;;5073799;28;20032;-74
2021/09/05 02:56:21;;;;;;;5.95;3.53;;;;;;;;;;5074168;28;20033;-74
2021/09/05 02:58:47;;;;;;;4.35;3.95;;;;;;;;;;5074403;28;20116;-74
2021/09/05 03:01:13;;;;;;;5.43;3.95;;;;;;;;;;5074270;28;20045;-74
2021/09/05 03:03:39;;;;;;;5.22;3.90;;;;;;;;;;5074011;28;20479;-74
2021/09/05 03:06:06;;;;;;;4.28;3.88;;;;;;;;;;5073898;28;20036;-74
2021/09/05 03:08:32;;;;;;;4.90;3.70;;;;;;;;;;5077138;28;20067;-74
2021/09/05 03:10:58;;;;;;;6.57;3.85;;;;;;;;;;5077764;28;20128;-74
2021/09/05 03:13:24;;;;;;;6.82;3.55;;;;;;;;;;5077529;28;20072;-75
2021/09/05 03:15:50;;;;;;;6.07;3.63;;;;;;;;;;5077809;28;20047;-75
2021/09/05 03:18:16;;;;;;;5.53;3.97;;;;;;;;;;5077190;28;20044;-74
2021/09/05 03:20:42;;;;;;;3.95;3.42;;;;;;;;;;5077414;28;20036;-74
2021/09/05 03:23:09;;;;;;;5.55;3.65;;;;;;;;;;5077374;28;20039;-74
2021/09/05 03:25:35;;;;;;;4.40;3.15;;;;;;;;;;5077036;28;20047;-74
2021/09/05 03:28:01;;;;;;;5.63;3.83;;;;;;;;;;5077034;28;20364;-74
2021/09/05 03:30:27;;;;;;;6.30;3.50;;;;;;;;;;5076909;28;20040;-74
2021/09/05 03:32:53;;;;;;;6.38;4.00;;;;;;;;;;5077166;28;20062;-74
2021/09/05 03:35:19;;;;;;;5.55;4.50;;;;;;;;;;5076799;28;20430;-74
2021/09/05 03:37:45;;;;;;;3.95;3.65;;;;;;;;;;5076480;28;20594;-74
2021/09/05 03:40:12;;;;;;;4.93;3.85;;;;;;;;;;5076735;28;20040;-74
2021/09/05 03:42:38;;;;;;;6.53;4.38;;;;;;;;;;5076871;28;20060;-74
2021/09/05 03:45:05;;;;;;;7.53;3.80;;;;;;;;;;5076954;28;20063;-74
2021/09/05 03:47:31;;;;;;;6.80;4.15;;;;;;;;;;5076696;28;20495;-74
2021/09/05 03:49:57;;;;;;;10.00;4.07;;;;;;;;;;5076588;28;20073;-74
2021/09/05 03:52:25;;;;;;;6.07;3.47;;;;;;;;;;5076816;28;20086;-74
2021/09/05 03:54:52;;;;;;;5.45;3.55;;;;;;;;;;5076601;28;20123;-74
2021/09/05 03:57:18;;;;;;;4.93;3.55;;;;;;;;;;5075203;28;20051;-74
2021/09/05 03:59:44;;;;;;;5.03;3.58;;;;;;;;;;5076689;28;20090;-74
2021/09/05 04:02:10;;;;;;;6.03;3.78;;;;;;;;;;5076603;28;20040;-74
2021/09/05 04:04:36;;;;;;;4.78;3.53;;;;;;;;;;5077039;28;20383;-74
2021/09/05 04:07:03;;;;;;;4.20;3.33;;;;;;;;;;5076289;28;20071;-74
2021/09/05 04:12:15;;;;;;;6.95;3.83;;;;;;;;;;5076046;28;20102;-74
2021/09/05 04:14:42;;;;;;;7.13;3.58;;;;;;;;;;5076179;28;20070;-74
2021/09/05 04:17:08;;;;;;;5.97;4.10;;;;;;;;;;5076457;28;20115;-74
2021/09/05 04:19:34;;;;;;;8.20;3.50;;;;;;;;;;5075889;28;20071;-74
2021/09/05 04:22:01;;;;;;;4.25;3.70;;;;;;;;;;5075891;28;20124;-74
2021/09/05 04:24:27;;;;;;;5.47;3.60;;;;;;;;;;5076078;28;20052;-74
2021/09/05 04:26:53;;;;;;;4.45;3.70;;;;;;;;;;5075669;28;20072;-74
2021/09/05 04:29:19;;;;;;;7.75;4.10;;;;;;;;;;5076035;28;20123;-74
2021/09/05 04:31:45;;;;;;;5.47;3.75;;;;;;;;;;5075822;28;20123;-74
2021/09/05 04:34:11;;;;;;;6.90;4.13;;;;;;;;;;5075963;28;20048;-74
2021/09/05 04:36:37;;;;;;;5.03;4.10;;;;;;;;;;5075911;28;20048;-74
2021/09/05 04:39:05;;;;;;;5.40;3.63;;;;;;;;;;5075530;28;20051;-74
2021/09/05 04:41:31;;;;;;;4.40;3.72;;;;;;;;;;5075409;28;20466;-74
2021/09/05 04:43:57;;;;;;;4.53;3.72;;;;;;;;;;5076219;28;20048;-74
2021/09/05 04:46:24;;;;;;;5.55;4.20;;;;;;;;;;5074913;28;20048;-74
2021/09/05 04:48:50;;;;;;;3.85;3.55;;;;;;;;;;5075074;28;20491;-74
2021/09/05 04:51:16;;;;;;;6.95;3.83;;;;;;;;;;5075028;28;20032;-74
2021/09/05 04:53:42;;;;;;;4.07;3.67;;;;;;;;;;5075503;28;20048;-74
2021/09/05 04:56:08;;;;;;;7.13;3.78;;;;;;;;;;5074894;28;20503;-74
2021/09/05 04:58:34;;;;;;;13.43;3.92;;;;;;;;;;5075645;28;20044;-74
2021/09/05 05:01:01;;;;;;;5.00;3.85;;;;;;;;;;5074914;28;20113;-74
2021/09/05 05:03:27;;;;;;;6.13;3.75;;;;;;;;;;5074756;28;20059;-74
2021/09/05 05:05:53;;;;;;;4.97;3.70;;;;;;;;;;5074851;28;20041;-74
2021/09/05 05:08:19;;;;;;;4.22;3.78;;;;;;;;;;5075370;28;20049;-74
2021/09/05 05:10:46;;;;;;;4.05;3.63;;;;;;;;;;5074978;28;20041;-74
2021/09/05 05:13:12;;;;;;;9.50;4.22;;;;;;;;;;5075186;28;20500;-74
2021/09/05 05:15:38;;;;;;;4.78;4.18;;;;;;;;;;5074423;28;20119;-74
2021/09/05 05:18:04;;;;;;;5.15;4.25;;;;;;;;;;5074804;28;20048;-74
2021/09/05 05:20:30;;;;;;;5.80;4.03;;;;;;;;;;5074901;28;20487;-74
2021/09/05 05:22:56;;;;;;;3.67;3.33;;;;;;;;;;5074547;28;20075;-74
2021/09/05 05:25:23;;;;;;;9.85;6.22;;;;;;;;;;5075264;28;20101;-74
2021/09/05 05:27:49;;;;;;;5.65;4.10;;;;;;;;;;5074765;28;20044;-74
2021/09/05 05:30:15;;;;;;;5.18;4.10;;;;;;;;;;5074366;28;20028;-74
2021/09/05 05:32:41;;;;;;;5.22;4.20;;;;;;;;;;5074673;28;20044;-74
2021/09/05 05:35:07;;;;;;;9.27;3.92;;;;;;;;;;5074728;28;20097;-74
2021/09/05 05:37:33;;;;;;;6.18;3.90;;;;;;;;;;5074464;28;20048;-74
2021/09/05 05:40:00;;;;;;;4.97;3.90;;;;;;;;;;5074797;28;20045;-74
2021/09/05 05:42:27;;;;;;;7.65;4.18;;;;;;;;;;5074508;28;20083;-74
2021/09/05 05:44:53;;;;;;;6.55;4.05;;;;;;;;;;5074280;28;20136;-74
2021/09/05 05:47:19;;;;;;;4.18;3.78;;;;;;;;;;5074779;28;20127;-74
2021/09/05 05:49:46;;;;;;;4.55;3.53;;;;;;;;;;5074967;28;20040;-74
2021/09/05 05:52:13;;;;;;;6.10;3.70;;;;;;;;;;5075155;28;20113;-74
2021/09/05 05:54:40;;;;;;;4.90;3.42;;;;;;;;;;5074461;28;20079;-74
2021/09/05 05:57:06;;;;;;;4.82;3.60;;;;;;;;;;5074555;28;20483;-74
2021/09/05 05:59:32;;;;;;;6.22;3.53;;;;;;;;;;5074467;28;20111;-74
2021/09/05 06:01:59;;;;;;;5.07;3.67;;;;;;;;;;5074747;28;20042;-74
2021/09/05 06:04:26;;;;;;;6.63;3.42;;;;;;;;;;5074891;28;20041;-74
2021/09/05 06:06:55;;;;;;;4.60;3.50;;;;;;;;;;5074542;28;20119;-74
2021/09/05 06:09:22;;;;;;;3.55;3.17;;;;;;;;;;5074287;28;20040;-74
2021/09/05 06:11:48;;;;;;;5.85;3.30;;;;;;;;;;5074562;28;20115;-74
2021/09/05 06:14:14;;;;;;;5.07;2.80;;;;;;;;;;5073266;28;20132;-74
2021/09/05 06:16:40;;;;;;;5.30;3.45;;;;;;;;;;5074207;28;20056;-74
2021/09/05 06:19:06;;;;;;;4.60;2.63;;;;;;;;;;5074439;28;20028;-74
2021/09/05 06:21:32;;;;;;;4.35;3.10;;;;;;;;;;5074179;28;20036;-74
2021/09/05 06:23:59;;;;;;;3.55;3.20;;;;;;;;;;5074914;28;20482;-74
2021/09/05 06:26:25;;;;;;;5.00;3.05;;;;;;;;;;5074338;28;20036;-74
2021/09/05 06:28:51;;;;;;;4.18;2.88;;;;;;;;;;5074107;28;20052;-74
2021/09/05 06:31:17;;;;;;;5.70;3.40;;;;;;;;;;5073943;28;20040;-74
2021/09/05 06:33:44;;;;;;;3.50;3.10;;;;;;;;;;5074653;28;20185;-74
2021/09/05 06:36:10;;;;;;;3.50;3.20;;;;;;;;;;5074360;28;20094;-74
2021/09/05 06:38:36;;;;;;;4.15;3.50;;;;;;;;;;5074474;28;20044;-74
2021/09/05 06:41:02;;;;;;;5.65;3.65;;;;;;;;;;5074240;28;20041;-74
2021/09/05 06:43:28;;;;;;;4.75;3.63;;;;;;;;;;5076491;28;20132;-74
2021/09/05 06:45:54;;;;;;;11.70;4.15;;;;;;;;;;5077252;28;20121;-74
2021/09/05 06:48:20;;;;;;;5.03;4.07;;;;;;;;;;5078295;28;20471;-74
2021/09/05 06:50:47;;;;;;;4.10;3.70;;;;;;;;;;5077321;28;20036;-74
2021/09/05 06:53:13;;;;;;;4.60;3.88;;;;;;;;;;5077336;28;20040;-74
2021/09/05 06:55:39;;;;;;;4.60;4.00;;;;;;;;;;5077485;28;20040;-74
2021/09/05 06:58:05;;;;;;;7.70;4.15;;;;;;;;;;5077671;28;20041;-74
2021/09/05 07:00:31;;;;;;;5.25;3.85;;;;;;;;;;5077008;28;20043;-74
2021/09/05 07:02:57;;;;;;;6.78;4.22;;;;;;;;;;5075145;28;20123;-75
2021/09/05 07:05:24;;;;;;;5.38;4.20;;;;;;;;;;5076802;28;20052;-75
2021/09/05 07:07:50;;;;;;;4.95;3.80;;;;;;;;;;5076557;28;20112;-75
2021/09/05 07:10:16;;;;;;;7.85;5.03;;;;;;;;;;5076972;28;20571;-75
2021/09/05 07:12:42;;;;;;;8.70;4.45;;;;;;;;;;5076927;28;20041;-72
2021/09/05 07:15:09;;;;;;;4.95;4.35;;;;;;;;;;5076971;28;20494;-75
2021/09/05 07:17:35;;;;;;;7.93;4.07;;;;;;;;;;5076716;28;20123;-75
2021/09/05 07:20:02;;;;;;;7.43;4.50;;;;;;;;;;5075229;28;20036;-74
2021/09/05 07:22:28;;;;;;;5.30;4.30;;;;;;;;;;5073022;28;20131;-75
2021/09/05 07:24:54;;;;;;;6.95;4.53;;;;;;;;;;5073178;28;20608;-74
2021/09/05 07:27:20;;;;;;;6.05;4.28;;;;;;;;;;5074449;28;20572;-74
2021/09/05 07:29:46;;;;;;;4.80;4.40;;;;;;;;;;5074891;28;20032;-74
2021/09/05 07:32:13;;;;;;;5.65;4.28;;;;;;;;;;5075050;28;20119;-74
2021/09/05 07:34:39;;;;;;;5.10;4.60;;;;;;;;;;5074940;28;20051;-74
2021/09/05 07:37:05;;;;;;;6.00;4.38;;;;;;;;;;5074907;28;20064;-74
2021/09/05 07:39:32;;;;;;;5.60;5.10;;;;;;;;;;5074629;28;20040;-74
2021/09/05 07:41:58;;;;;;;5.45;4.80;;;;;;;;;;5074147;28;20131;-75
2021/09/05 07:44:24;;;;;;;5.15;4.53;;;;;;;;;;5073611;28;20096;-74
2021/09/05 07:46:51;;;;;;;5.63;4.95;;;;;;;;;;5072835;28;20123;-74
2021/09/05 07:49:17;;;;;;;6.03;4.60;;;;;;;;;;5073795;28;20078;-74
2021/09/05 07:51:44;;;;;;;8.15;4.63;;;;;;;;;;5079064;28;20036;-74
2021/09/05 07:54:10;;;;;;;8.25;4.68;;;;;;;;;;5095956;28;20048;-74
2021/09/05 07:56:36;;;;;;;4.70;4.30;;;;;;;;;;5096602;28;20044;-74
2021/09/05 07:59:02;;;;;;;6.95;4.90;;;;;;;;;;5096560;28;20076;-75
2021/09/05 08:01:28;;;;;;;5.82;4.95;;;;;;;;;;5095556;28;20040;-75
2021/09/05 08:03:54;;;;;;;5.15;4.47;;;;;;;;;;5096113;28;20495;-75
2021/09/05 08:06:22;;;;;;;6.57;5.28;;;;;;;;;;5096214;28;20097;-75
2021/09/05 08:08:49;;;;;;;5.75;5.25;;;;;;;;;;5096749;28;20122;-75
2021/09/05 08:11:15;;;;;;;5.63;4.55;;;;;;;;;;5096111;28;20032;-75
2021/09/05 08:13:41;;;;;;;5.47;4.57;;;;;;;;;;5096336;28;20047;-76
2021/09/05 08:16:07;;;;;;;5.00;4.30;;;;;;;;;;5096001;28;20082;-74
2021/09/05 08:18:35;;;;;;;5.05;4.55;;;;;;;;;;5096812;28;20044;-75
2021/09/05 08:21:02;;;;;;;5.20;4.50;;;;;;;;;;5096106;28;20044;-73
2021/09/05 08:23:28;;;;;;;7.28;4.57;;;;;;;;;;5095709;28;20127;-74
2021/09/05 08:25:54;;;;;;;6.90;5.07;;;;;;;;;;5096104;28;20048;-76
2021/09/05 08:28:21;;;;;;;5.72;4.72;;;;;;;;;;5080890;28;20041;-77
2021/09/05 08:30:48;;;;;;;5.38;4.80;;;;;;;;;;5066802;28;20036;-78
2021/09/05 08:33:15;;;;;;;5.90;4.68;;;;;;;;;;5075514;28;20131;-78
2021/09/05 08:35:41;;;;;;;5.13;4.47;;;;;;;;;;5073997;28;20085;-78
2021/09/05 08:38:08;;;;;;;5.95;4.55;;;;;;;;;;5074806;28;20503;-77
2021/09/05 08:40:38;;;;;;;4.97;4.57;;;;;;;;;;5075497;28;20045;-77
2021/09/05 08:43:04;;;;;;;5.73;5.23;;;;;;;;;;5075312;28;20052;-78
2021/09/05 08:45:31;;;;;;;5.43;4.78;;;;;;;;;;5075318;28;20294;-78
2021/09/05 08:47:58;;;;;;;6.10;5.50;;;;;;;;;;5080072;28;20036;-78
2021/09/05 08:50:25;;;;;;;5.97;4.70;;;;;;;;;;5094259;28;20036;-78
2021/09/05 08:52:51;;;;;;;5.72;4.70;;;;;;;;;;5095480;28;20064;-78
2021/09/05 08:55:18;;;;;;;5.18;4.78;;;;;;;;;;5094133;28;20067;-78
2021/09/05 08:57:47;;;;;;;5.50;4.70;;;;;;;;;;5095155;28;20059;-79
2021/09/05 09:00:15;;;;;;;4.22;3.90;;;;;;;;;;5080123;28;20036;-80
2021/09/05 09:02:53;;;;;;;6.57;4.18;;;;;;;;;;5057128;28;20037;-80
2021/09/05 09:05:38;;;;;;;6.25;4.13;;;;;;;;;;5068784;28;20041;-80
2021/09/05 09:08:11;;;;;;;5.57;4.43;;;;;;;;;;5072774;28;20037;-80
2021/09/05 09:10:54;;;;;;;6.57;4.15;;;;;;;;;;5075120;28;20068;-80
2021/09/05 09:13:26;;;;;;;6.40;4.25;;;;;;;;;;5071607;28;20127;-80
2021/09/05 09:15:55;;;;;;;4.88;4.38;;;;;;;;;;5071031;28;20593;-79
2021/09/05 09:18:28;;;;;;;9.65;3.80;;;;;;;;;;5070372;28;20495;-81
2021/09/05 09:20:58;;;;;;;5.93;4.05;;;;;;;;;;5071179;28;20044;-82
2021/09/05 09:23:31;;;;;;;4.32;3.05;;;;;;;;;;5071152;28;20568;-78
2021/09/05 09:25:58;;;;;;;3.22;2.92;;;;;;;;;;5072974;28;20036;-76
2021/09/05 09:28:25;;;;;;;4.60;3.15;;;;;;;;;;5072779;28;20044;-75
2021/09/05 09:30:51;;;;;;;4.13;2.90;;;;;;;;;;5072680;28;20033;-75
2021/09/05 09:33:22;;;;;;;4.25;3.10;;;;;;;;;;5073467;28;20037;-76
2021/09/05 09:35:49;;;;;;;5.10;3.13;;;;;;;;;;5072645;28;20477;-76
2021/09/05 09:38:17;;;;;;;6.70;3.15;;;;;;;;;;5073448;28;20255;-76
2021/09/05 09:40:43;;;;;;;5.07;2.90;;;;;;;;;;5072699;28;20601;-75
2021/09/05 09:43:17;;;;;;;3.22;3.03;;;;;;;;;;5072144;28;20055;-75
2021/09/05 09:45:44;;;;;;;4.25;3.30;;;;;;;;;;5072194;28;20052;-77
2021/09/05 09:48:10;;;;;;;3.33;3.03;;;;;;;;;;5072970;28;20045;-76
2021/09/05 09:50:42;;;;;;;4.55;2.88;;;;;;;;;;5073247;28;20040;-75
2021/09/05 09:53:09;;;;;;;3.92;3.20;;;;;;;;;;5072574;28;20521;-75
2021/09/05 09:55:39;;;;;;;4.53;2.92;;;;;;;;;;5072326;28;20491;-76
2021/09/05 09:58:06;;;;;;;3.55;3.10;;;;;;;;;;5072411;28;20036;-77
2021/09/05 10:00:33;;;;;;;3.28;2.97;;;;;;;;;;5072083;28;20089;-76
2021/09/05 10:03:00;;;;;;;5.03;3.10;;;;;;;;;;5072127;28;20048;-76
2021/09/05 10:05:27;;;;;;;3.67;3.38;;;;;;;;;;5071147;28;20044;-76
2021/09/05 10:07:55;;;;;;;4.43;3.30;;;;;;;;;;5071626;28;20056;-76
2021/09/05 10:10:22;;;;;;;4.35;2.90;;;;;;;;;;5071584;28;20040;-76
2021/09/05 10:12:49;;;;;;;3.40;3.10;;;;;;;;;;5071890;28;20039;-76
2021/09/05 10:15:16;;;;;;;3.70;3.40;;;;;;;;;;5070827;28;20117;-82
2021/09/05 10:17:42;;;;;;;6.35;3.30;;;;;;;;;;5074169;28;20032;-81
2021/09/05 10:20:09;;;;;;;3.40;3.10;;;;;;;;;;5073530;28;20032;-78
2021/09/05 10:22:35;;;;;;;4.13;3.38;;;;;;;;;;5074048;28;20040;-83
2021/09/05 10:25:02;;;;;;;3.42;2.90;;;;;;;;;;5073712;28;20114;-80
2021/09/05 10:27:34;;;;;;;6.00;3.13;;;;;;;;;;5074742;28;20067;-80
2021/09/05 10:30:09;;;;;;;3.67;3.15;;;;;;;;;;5074289;28;20111;-81
2021/09/05 10:32:48;;;;;;;3.58;3.20;;;;;;;;;;5076218;28;20047;-80
2021/09/05 10:35:27;;;;;;;3.92;3.38;;;;;;;;;;5075224;28;20507;-73
2021/09/05 10:38:26;;;;;;;3.60;3.30;;;;;;;;;;5076766;28;20478;-77
2021/09/05 10:40:55;;;;;;;3.45;3.15;;;;;;;;;;5021151;28;20048;-82
2021/09/05 10:43:24;;;;;;;4.13;2.92;;;;;;;;;;5076140;28;20060;-80
2021/09/05 10:45:55;;;;;;;3.30;3.00;;;;;;;;;;5074078;28;20037;-82
2021/09/05 10:48:31;;;;;;;4.25;3.38;;;;;;;;;;5074758;28;20037;-77
2021/09/05 10:51:16;;;;;;;4.22;3.10;;;;;;;;;;5075361;28;20047;-77
2021/09/05 10:54:01;;;;;;;4.68;3.08;;;;;;;;;;5073779;28;20044;-76
2021/09/05 10:56:28;;;;;;;5.32;3.00;;;;;;;;;;5075588;28;20036;-75
2021/09/05 10:59:05;;;;;;;7.10;3.10;;;;;;;;;;5077632;28;20182;-73
2021/09/05 11:01:47;;;;;;;5.10;3.10;;;;;;;;;;5075081;28;20115;-72
2021/09/05 11:04:16;;;;;;;3.78;3.10;;;;;;;;;;5077103;28;20121;-74
2021/09/05 11:06:57;;;;;;;3.28;2.97;;;;;;;;;;5077521;28;20051;-72
2021/09/05 11:09:24;;;;;;;5.43;3.15;;;;;;;;;;5078471;28;20036;-72
2021/09/05 11:11:56;;;;;;;3.05;2.83;;;;;;;;;;5078686;28;20040;-72
2021/09/05 11:14:38;;;;;;;5.07;2.72;;;;;;;;;;5077534;28;20121;-70
2021/09/05 11:17:10;;;;;;;3.08;2.83;;;;;;;;;;5076871;28;20041;-71
2021/09/05 11:19:48;;;;;;;4.30;3.00;;;;;;;;;;5077161;28;20051;-72
2021/09/05 11:22:15;;;;;;;3.85;2.63;;;;;;;;;;5076172;28;20040;-72
2021/09/05 11:24:42;;;;;;;2.65;2.45;;;;;;;;;;5076991;28;20044;-73
2021/09/05 11:27:09;;;;;;;3.22;2.70;;;;;;;;;;5076682;28;20049;-72
2021/09/05 11:29:36;;;;;;;3.08;2.30;;;;;;;;;;5075857;28;20040;-73
2021/09/05 11:32:03;;;;;;;5.97;2.83;;;;;;;;;;5076958;28;20094;-71
2021/09/05 11:34:29;;;;;;;3.40;2.47;;;;;;;;;;5076898;28;20044;-70
2021/09/05 11:36:55;;;;;;;4.78;2.85;;;;;;;;;;5076643;28;20488;-74
2021/09/05 11:39:21;;;;;;;5.75;3.05;;;;;;;;;;5076807;28;20068;-72
2021/09/05 11:41:54;;;;;;;3.53;2.50;;;;;;;;;;5076749;28;20098;-74
2021/09/05 11:44:31;;;;;;;2.83;2.63;;;;;;;;;;5079990;28;20055;-69
2021/09/05 11:47:10;;;;;;;3.08;2.75;;;;;;;;;;5075636;28;20203;-72
2021/09/05 11:49:36;;;;;;;3.42;2.50;;;;;;;;;;5075782;28;20048;-71
2021/09/05 11:52:03;;;;;;;4.03;2.80;;;;;;;;;;5075740;28;20036;-83
2021/09/05 11:54:29;;;;;;;3.47;2.45;;;;;;;;;;5075661;28;20131;-78
2021/09/05 11:56:55;;;;;;;3.50;2.50;;;;;;;;;;5075711;28;20097;-74
2021/09/05 11:59:22;;;;;;;2.47;2.28;;;;;;;;;;5075259;28;20123;-75
2021/09/05 12:01:53;;;;;;;6.43;2.58;;;;;;;;;;5075041;28;20111;-75
2021/09/05 12:04:20;;;;;;;3.03;2.30;;;;;;;;;;5075198;28;20056;-77
2021/09/05 12:06:46;;;;;;;2.33;2.13;;;;;;;;;;5075088;28;20048;-77
2021/09/05 12:09:13;;;;;;;2.47;2.20;;;;;;;;;;5070568;28;20585;-76
2021/09/05 12:11:55;;;;;;;3.47;2.72;;;;;;;;;;5063534;28;20045;-76
2021/09/05 12:14:38;;;;;;;3.70;2.58;;;;;;;;;;5055361;28;20403;-76
2021/09/05 12:17:20;;;;;;;2.75;2.30;;;;;;;;;;5055716;28;20126;-76
2021/09/05 12:20:04;;;;;;;3.25;2.08;;;;;;;;;;5055725;28;20033;-76
2021/09/05 12:22:48;;;;;;;2.80;2.30;;;;;;;;;;5055386;28;20045;-76
2021/09/05 12:25:22;;;;;;;2.97;2.22;;;;;;;;;;5054545;28;20057;-77
2021/09/05 12:28:04;;;;;;;3.08;2.20;;;;;;;;;;5055287;28;20089;-76
2021/09/05 12:30:35;;;;;;;4.05;2.78;;;;;;;;;;5055015;28;20076;-78
2021/09/05 12:33:17;;;;;;;2.88;2.58;;;;;;;;;;5055230;28;20438;-77
2021/09/05 12:35:44;;;;;;;3.95;2.47;;;;;;;;;;5055340;28;20052;-76
2021/09/05 12:38:32;;;;;;;2.63;2.42;;;;;;;;;;5055350;28;20049;-81
2021/09/05 12:41:24;;;;;;;2.92;2.30;;;;;;;;;;5055124;28;20043;-74
2021/09/05 12:43:59;;;;;;;4.93;2.42;;;25.20;1.00;;;;;;5053612;28;20111;-75
2021/09/05 12:46:43;;;;;;;3.28;2.50;;;25.30;1.00;;;;;;5058158;28;20040;-75
2021/09/05 12:49:17;;;;;;;2.55;2.35;;;25.40;1.00;;;;;;5074015;28;20047;-75
2021/09/05 12:51:55;;;;;;;5.38;3.10;;;25.60;1.00;;;;;;5073766;28;20111;-74
2021/09/05 12:54:23;;;;;;;2.47;2.28;;;25.30;1.00;;;;;;5072462;28;20055;-74
2021/09/05 12:56:49;;;;;;;3.25;2.80;;;25.50;1.00;;;;;;5072410;28;20395;-74
2021/09/05 12:59:16;;;;;;;2.95;2.70;;;25.50;1.00;;;;;;5073857;28;20544;-74
2021/09/05 13:01:42;;;;;;;2.70;2.50;;;25.40;1.00;;;;;;5073544;28;20115;-74
2021/09/05 13:04:08;;;;;;;3.15;2.50;;;25.20;1.00;;;;;;5073534;28;20048;-74
2021/09/05 13:06:34;;;;;;;4.38;2.63;;;24.90;1.00;;;;;;5073408;28;20444;-75
2021/09/05 13:09:00;;;;;;;3.85;2.78;;;24.80;1.00;;;;;;5073675;28;20040;-75
2021/09/05 13:11:28;;;;;;;3.28;2.97;;;24.80;1.00;;;;;;5073304;28;20408;-74
2021/09/05 13:13:55;;;;;;;2.72;2.30;;;24.70;1.00;;;;;;5073407;28;20053;-74
2021/09/05 13:16:21;;;;;;;4.63;2.75;;;24.90;1.00;;;;;;5073248;28;20491;-75
2021/09/05 13:18:48;;;;;;;4.88;2.80;;;24.90;1.00;;;;;;5073331;28;20044;-75
2021/09/05 13:21:15;;;;;;;6.00;2.50;;;24.70;1.00;;;;;;5071024;28;20044;-74
2021/09/05 13:23:44;;;;;;;2.85;2.58;;;24.80;1.00;;;;;;5073165;28;20114;-75
2021/09/05 13:26:15;;;;;;;2.58;2.38;;;25.00;1.00;;;;;;5072862;28;20086;-75
2021/09/05 13:28:41;;;;;;;3.25;2.60;;;25.30;1.00;;;;;;5073358;28;20047;-75
2021/09/05 13:31:11;;;;;;;3.13;2.83;;;25.50;1.00;;;;;;5073325;28;20495;-75
2021/09/05 13:33:37;;;;;;;4.80;2.80;;;25.50;1.00;;;;;;5074580;28;20036;-74
2021/09/05 13:36:03;;;;;;;3.72;2.40;;;26.00;1.00;;;;;;5071275;28;20086;-74
2021/09/05 13:38:29;;;;;;;4.53;2.83;;;26.20;1.00;;;;;;5063804;28;20558;-74
2021/09/05 13:40:54;;;;;;;2.70;2.50;;;26.30;1.00;;;;;;5074392;28;20043;-76
2021/09/05 13:43:30;;;;;;;3.22;2.92;;;26.30;1.00;;;;;;5072839;28;20040;-77
2021/09/05 13:45:56;;;;;;;3.08;2.78;;;26.10;1.00;;;;;;5071602;28;20048;-76
2021/09/05 13:48:22;;;;;;;2.80;2.60;;;26.30;1.00;;;;;;5071924;28;20499;-75
2021/09/05 13:50:49;;;;;;;3.92;3.00;;;26.10;1.00;;;;;;5069714;28;20515;-75
2021/09/05 13:53:15;;;;;;;4.90;3.08;;;26.10;1.00;;;;;;5068912;28;20127;-76
2021/09/05 13:55:40;;;;;;;2.72;2.53;;;26.10;1.00;;;;;;5072687;28;20036;-76
2021/09/05 13:58:06;;;;;;;3.70;3.17;;;26.10;1.00;;;;;;5072778;28;20040;-76
2021/09/05 14:00:33;;;;;;;5.05;3.10;;;26.30;1.00;;;;;;5070440;28;20039;-76
2021/09/05 14:03:00;;;;;;;4.03;3.03;;;26.40;1.00;;;;;;5072652;28;20048;-77
2021/09/05 14:05:26;;;;;;;3.25;2.83;;;26.70;1.00;;;;;;5073117;28;20424;-77
2021/09/05 14:07:52;;;;;;;4.20;3.38;;;26.50;1.00;;;;;;5072853;28;20043;-77
2021/09/05 14:10:17;;;;;;;3.47;3.17;;;26.30;1.00;;;;;;5073487;28;20123;-78
2021/09/05 14:12:43;;;;;;;3.30;3.00;;;26.20;1.00;;;;;;5073260;28;20124;-76
2021/09/05 14:15:09;;;;;;;4.03;2.85;;;26.00;1.00;;;;;;5072910;28;20033;-77
2021/09/05 14:17:35;;;;;;;4.03;3.00;;;25.80;1.00;;;;;;5073035;28;20040;-82
2021/09/05 14:20:02;;;;;;;5.00;2.97;;;25.60;1.00;;;;;;5031599;28;20377;-78
2021/09/05 14:22:30;;;;;;;4.05;2.95;;;25.60;1.00;;;;;;5032415;28;20053;-77
2021/09/05 14:24:56;;;;;;;3.65;3.20;;;25.60;1.00;;;;;;5030554;28;20042;-76
2021/09/05 14:27:27;;;;;;;3.50;2.85;;;25.50;1.00;;;;;;5017800;28;20052;-75
2021/09/05 14:37:56;;;;;;;3.47;2.95;;;25.50;1.00;;;;;;5025627;28;20060;-75
2021/09/05 14:54:11;;;;;;;4.13;2.88;;;25.40;1.00;;;;;;5032762;28;20072;-75
2021/09/05 14:56:37;;;;;;;3.38;2.97;;;25.40;1.00;;;;;;5027560;28;20052;-75